Time;durP1;ratioP1;P1;durP2;ratioP2;P2;SDS_P1;SDS_P2;PMS_P1;PMS_P2;Temp;Humidity;BMP_temperature;BMP_pressure;BME280_temperature;BME280_humidity;BME280_pressure;Samples;Min_cycle;Max_cycle;Signal;HPM_P1;HPM_P2
2024/01/01 00:00:47;;;;;;;0.80;0.80;;;5.40;1.00;;;;;;5123873;28;20169;-83
2024/01/01 00:03:13;;;;;;;0.70;0.70;;;5.50;1.00;;;;;;5124816;28;20181;-83
2024/01/01 00:05:38;;;;;;;0.70;0.70;;;5.40;1.00;;;;;;5121466;28;20549;-84
2024/01/01 00:08:04;;;;;;;0.80;0.80;;;5.50;1.00;;;;;;5123877;28;20188;-84
2024/01/01 00:10:29;;;;;;;0.80;0.80;;;5.50;1.00;;;;;;5124053;27;20212;-83
2024/01/01 00:12:55;;;;;;;0.80;0.80;;;5.50;1.00;;;;;;5123269;28;20205;-84
2024/01/01 00:15:21;;;;;;;0.80;0.80;;;5.50;1.00;;;;;;5123733;28;20256;-84
2024/01/01 00:17:46;;;;;;;0.80;0.80;;;5.50;1.00;;;;;;5122119;28;20193;-83
2024/01/01 00:20:12;;;;;;;0.70;0.70;;;5.50;1.00;;;;;;5119511;28;20582;-83
2024/01/01 00:22:37;;;;;;;0.70;0.70;;;5.60;1.00;;;;;;5122550;28;20196;-82
2024/01/01 00:25:04;;;;;;;0.80;0.80;;;5.60;1.00;;;;;;5123196;27;20267;-83
2024/01/01 00:27:33;;;;;;;0.77;0.77;;;5.70;1.00;;;;;;5122712;28;20265;-83
2024/01/01 00:29:59;;;;;;;0.70;0.70;;;5.80;1.00;;;;;;5121226;28;20607;-84
2024/01/01 00:32:24;;;;;;;0.70;0.70;;;5.80;1.00;;;;;;5121796;28;20690;-83
2024/01/01 00:34:50;;;;;;;0.80;0.80;;;5.90;1.00;;;;;;5122074;28;20199;-84
2024/01/01 00:37:15;;;;;;;0.90;0.90;;;5.90;99.90;;;;;;5120660;28;20245;-84
2024/01/01 00:39:42;;;;;;;0.70;0.70;;;6.00;1.00;;;;;;5121313;28;20255;-83
2024/01/01 00:42:08;;;;;;;0.80;0.80;;;6.00;1.00;;;;;;5121373;28;20669;-84
2024/01/01 00:44:34;;;;;;;0.80;0.80;;;6.00;99.90;;;;;;5121476;28;20181;-84
2024/01/01 00:46:59;;;;;;;0.80;0.80;;;6.00;99.90;;;;;;5119220;28;20193;-84
2024/01/01 00:49:25;;;;;;;0.80;0.80;;;6.10;1.00;;;;;;5106489;28;20158;-85
2024/01/01 00:51:51;;;;;;;0.77;0.77;;;6.10;1.00;;;;;;5108839;28;20223;-83
2024/01/01 00:54:18;;;;;;;0.80;0.80;;;6.10;1.00;;;;;;5121649;28;20199;-84
2024/01/01 00:56:43;;;;;;;0.80;0.80;;;6.20;1.00;;;;;;5121316;28;20280;-83
2024/01/01 00:59:09;;;;;;;0.80;0.80;;;6.30;99.90;;;;;;5117488;28;20178;-83
2024/01/01 01:01:35;;;;;;;0.70;0.70;;;6.30;99.90;;;;;;5101038;28;20189;-88
2024/01/01 01:04:00;;;;;;;0.80;0.80;;;6.30;99.90;;;;;;5102199;28;20212;-84
2024/01/01 01:06:26;;;;;;;0.80;0.80;;;6.30;99.90;;;;;;5100739;28;20194;-85
2024/01/01 01:08:51;;;;;;;0.70;0.70;;;6.20;94.70;;;;;;5103116;28;20181;-84
2024/01/01 01:11:17;;;;;;;0.70;0.70;;;6.10;99.90;;;;;;5102436;28;20177;-82
2024/01/01 01:13:43;;;;;;;0.70;0.70;;;6.10;99.90;;;;;;5102826;28;20204;-84
2024/01/01 01:16:09;;;;;;;0.80;0.80;;;6.00;1.00;;;;;;5101943;28;20251;-83
2024/01/01 01:18:34;;;;;;;0.70;0.70;;;5.90;1.00;;;;;;5102683;28;20173;-83
2024/01/01 01:21:00;;;;;;;0.80;0.80;;;5.90;99.90;;;;;;5102830;28;20216;-83
2024/01/01 01:23:25;;;;;;;0.70;0.70;;;5.90;99.90;;;;;;5101035;28;20212;-83
2024/01/01 01:25:51;;;;;;;0.87;0.87;;;5.80;1.00;;;;;;5102443;28;20201;-84
2024/01/01 01:28:24;;;;;;;0.80;0.80;;;5.80;99.90;;;;;;5101286;28;20186;-84
2024/01/01 01:30:49;;;;;;;0.70;0.70;;;5.90;1.00;;;;;;5100921;28;20178;-84
2024/01/01 01:33:16;;;;;;;0.80;0.80;;;5.90;1.00;;;;;;5101081;28;20213;-84
2024/01/01 01:35:42;;;;;;;0.80;0.80;;;6.00;1.00;;;;;;5098500;28;20166;-82
2024/01/01 01:38:07;;;;;;;0.70;0.70;;;6.00;99.90;;;;;;5101443;28;20184;-85
2024/01/01 01:40:33;;;;;;;0.70;0.70;;;6.10;99.90;;;;;;5102386;28;20631;-84
2024/01/01 01:42:58;;;;;;;0.60;0.60;;;6.10;1.00;;;;;;5101392;28;20226;-84
2024/01/01 01:45:24;;;;;;;0.70;0.70;;;6.20;99.90;;;;;;5109544;28;20166;-79
2024/01/01 01:47:51;;;;;;;0.70;0.70;;;6.20;99.90;;;;;;5116980;28;20189;-79
2024/01/01 01:50:16;;;;;;;0.70;0.70;;;6.20;99.90;;;;;;5117598;28;20169;-80
2024/01/01 01:52:43;;;;;;;0.80;0.80;;;6.30;1.00;;;;;;5117295;28;20273;-79
2024/01/01 01:55:12;;;;;;;0.80;0.80;;;6.30;1.00;;;;;;5112389;28;20238;-85
2024/01/01 01:57:38;;;;;;;0.70;0.70;;;6.30;1.00;;;;;;5105348;28;20285;-84
2024/01/01 02:00:05;;;;;;;0.80;0.80;;;6.30;1.00;;;;;;5106621;28;20174;-84
2024/01/01 02:02:34;;;;;;;0.77;0.77;;;6.30;1.00;;;;;;5106530;28;20185;-84
2024/01/01 02:04:59;;;;;;;0.70;0.70;;;6.60;1.00;;;;;;5105250;28;20177;-85
2024/01/01 02:07:25;;;;;;;0.67;0.67;;;6.20;1.00;;;;;;5104728;28;20214;-84
2024/01/01 02:09:50;;;;;;;0.70;0.70;;;6.20;99.90;;;;;;5104756;28;20253;-84
2024/01/01 02:12:16;;;;;;;0.70;0.70;;;6.20;1.00;;;;;;5105319;28;20204;-83
2024/01/01 02:14:42;;;;;;;0.70;0.70;;;6.20;1.00;;;;;;5104197;28;20174;-85
2024/01/01 02:17:07;;;;;;;0.80;0.80;;;6.30;1.00;;;;;;5102301;28;20247;-84
2024/01/01 02:19:33;;;;;;;0.70;0.70;;;6.10;99.90;;;;;;5103278;28;20170;-85
2024/01/01 02:21:58;;;;;;;0.90;0.90;;;6.10;99.90;;;;;;5103818;28;20178;-84
2024/01/01 02:24:24;;;;;;;0.70;0.70;;;6.00;99.90;;;;;;5107104;28;20178;-82
2024/01/01 02:26:50;;;;;;;0.70;0.70;;;6.00;1.00;;;;;;5106873;28;20208;-84
2024/01/01 02:29:16;;;;;;;0.80;0.80;;;5.90;1.00;;;;;;5105384;28;20227;-85
2024/01/01 02:31:42;;;;;;;0.70;0.70;;;5.90;1.00;;;;;;5105644;28;20196;-84
2024/01/01 02:34:07;;;;;;;0.60;0.60;;;6.00;1.00;;;;;;5107658;28;20235;-84
2024/01/01 02:36:38;;;;;;;0.73;0.73;;;5.90;1.00;;;;;;5107810;28;20200;-83
2024/01/01 02:39:05;;;;;;;0.70;0.70;;;5.90;1.00;;;;;;5107672;28;20185;-83
2024/01/01 02:41:33;;;;;;;0.80;0.80;;;6.00;1.00;;;;;;5109000;28;20178;-83
2024/01/01 02:43:58;;;;;;;0.80;0.80;;;5.90;99.90;;;;;;5108332;28;20173;-83
2024/01/01 02:46:24;;;;;;;0.80;0.80;;;5.90;1.00;;;;;;5107834;28;20297;-84
2024/01/01 02:48:49;;;;;;;0.70;0.70;;;5.80;1.00;;;;;;5107488;28;20182;-84
2024/01/01 02:51:15;;;;;;;0.80;0.80;;;5.80;51.50;;;;;;5108090;28;20253;-85
2024/01/01 02:53:41;;;;;;;0.70;0.70;;;5.80;99.90;;;;;;5108720;28;20205;-85
2024/01/01 02:56:18;;;;;;;0.70;0.70;;;5.70;99.90;;;;;;5118577;28;20205;-84
2024/01/01 02:58:46;;;;;;;0.80;0.80;;;5.70;99.90;;;;;;5129705;28;20229;-84
2024/01/01 03:01:11;;;;;;;0.60;0.60;;;5.80;99.90;;;;;;5129817;27;20177;-83
2024/01/01 03:03:37;;;;;;;0.70;0.70;;;5.80;99.90;;;;;;5129864;28;20184;-83
2024/01/01 03:06:03;;;;;;;0.70;0.70;;;5.80;99.90;;;;;;5129386;28;20192;-83
2024/01/01 03:08:29;;;;;;;0.70;0.70;;;5.80;99.90;;;;;;5130105;28;20189;-83
2024/01/01 03:10:54;;;;;;;0.80;0.80;;;5.80;1.00;;;;;;5130581;28;20173;-85
2024/01/01 03:13:20;;;;;;;0.60;0.60;;;5.80;1.00;;;;;;5130365;28;20201;-84
2024/01/01 03:15:45;;;;;;;0.70;0.70;;;5.80;1.00;;;;;;5129887;28;20204;-83
2024/01/01 03:18:12;;;;;;;0.70;0.70;;;5.80;1.00;;;;;;5135188;28;20195;-80
2024/01/01 03:20:38;;;;;;;0.60;0.60;;;5.80;1.00;;;;;;5139308;28;20164;-81
2024/01/01 03:23:04;;;;;;;0.70;0.70;;;5.70;1.00;;;;;;5139823;28;20177;-81
2024/01/01 03:25:30;;;;;;;0.70;0.70;;;5.90;1.00;;;;;;5139172;28;20188;-81
2024/01/01 03:27:55;;;;;;;0.73;0.73;;;5.70;65.30;;;;;;5139291;27;20181;-81
2024/01/01 03:30:22;;;;;;;0.70;0.70;;;5.70;99.90;;;;;;5135651;28;20181;-82
2024/01/01 03:32:50;;;;;;;0.80;0.80;;;5.70;99.90;;;;;;5124372;28;20201;-84
2024/01/01 03:35:16;;;;;;;0.70;0.70;;;5.70;99.90;;;;;;5122891;28;20276;-83
2024/01/01 03:37:41;;;;;;;0.80;0.80;;;5.80;99.90;;;;;;5126341;27;20224;-83
2024/01/01 03:40:07;;;;;;;0.70;0.70;;;5.80;73.30;;;;;;5126566;27;20176;-82
2024/01/01 03:42:33;;;;;;;0.70;0.70;;;5.90;63.10;;;;;;5126251;27;20181;-84
2024/01/01 03:44:59;;;;;;;0.70;0.70;;;5.90;1.00;;;;;;5125914;28;20207;-85
2024/01/01 03:47:25;;;;;;;0.70;0.70;;;6.00;1.00;;;;;;5137967;28;20204;-82
2024/01/01 03:49:50;;;;;;;0.60;0.60;;;6.00;1.00;;;;;;5138756;27;20176;-80
2024/01/01 03:52:17;;;;;;;0.70;0.70;;;6.00;1.00;;;;;;5138102;28;20173;-81
2024/01/01 03:54:43;;;;;;;0.63;0.63;;;6.00;1.00;;;;;;5139086;28;20179;-82
2024/01/01 03:57:08;;;;;;;0.73;0.73;;;6.10;1.00;;;;;;5137787;28;20257;-85
2024/01/01 03:59:35;;;;;;;0.70;0.70;;;6.10;1.00;;;;;;5130391;28;20552;-83
2024/01/01 04:02:00;;;;;;;0.80;0.80;;;6.10;1.00;;;;;;5135586;28;20165;-81
2024/01/01 04:04:26;;;;;;;0.80;0.80;;;6.10;1.00;;;;;;5136196;28;20154;-83
2024/01/01 04:06:52;;;;;;;0.70;0.70;;;6.10;1.00;;;;;;5135114;28;20209;-80
2024/01/01 04:09:18;;;;;;;0.70;0.70;;;6.10;1.00;;;;;;5132266;28;20176;-83
2024/01/01 04:11:44;;;;;;;0.70;0.70;;;6.10;99.90;;;;;;5129822;28;20184;-84
2024/01/01 04:14:09;;;;;;;0.70;0.70;;;6.10;1.00;;;;;;5129193;28;20200;-83
2024/01/01 04:16:36;;;;;;;0.70;0.70;;;5.90;1.00;;;;;;5128875;28;20220;-84
2024/01/01 04:19:02;;;;;;;0.80;0.80;;;6.00;1.00;;;;;;5129868;28;20185;-85
2024/01/01 04:21:27;;;;;;;0.77;0.77;;;6.00;1.00;;;;;;5132552;28;20187;-81
2024/01/01 04:23:55;;;;;;;0.70;0.70;;;6.00;1.00;;;;;;5135703;28;20172;-81
2024/01/01 04:26:21;;;;;;;0.70;0.70;;;5.90;1.00;;;;;;5134609;28;20197;-81
2024/01/01 04:28:47;;;;;;;0.70;0.70;;;5.90;1.00;;;;;;5128748;28;20184;-84
2024/01/01 04:31:12;;;;;;;0.77;0.77;;;5.80;63.70;;;;;;5126490;28;20234;-84
2024/01/01 04:33:38;;;;;;;0.67;0.67;;;5.70;99.90;;;;;;5127270;28;20613;-83
2024/01/01 04:36:04;;;;;;;0.70;0.70;;;5.70;99.90;;;;;;5126678;28;20251;-82
2024/01/01 04:38:29;;;;;;;0.70;0.70;;;5.60;99.90;;;;;;5127357;28;20196;-84
2024/01/01 04:40:55;;;;;;;0.70;0.70;;;5.60;1.00;;;;;;5126584;28;20696;-83
2024/01/01 04:43:20;;;;;;;0.70;0.70;;;5.70;1.00;;;;;;5126577;28;20244;-84
2024/01/01 04:45:46;;;;;;;0.60;0.60;;;5.70;1.00;;;;;;5124886;28;20227;-84
2024/01/01 04:48:11;;;;;;;0.80;0.80;;;5.70;99.90;;;;;;5125837;28;20169;-82
2024/01/01 04:50:37;;;;;;;0.70;0.70;;;5.80;99.90;;;;;;5125575;27;20180;-84
2024/01/01 04:53:03;;;;;;;0.70;0.70;;;5.70;99.90;;;;;;5123906;28;20689;-84
2024/01/01 04:55:28;;;;;;;0.80;0.80;;;5.60;99.90;;;;;;5125452;27;20200;-82
2024/01/01 04:57:54;;;;;;;0.60;0.60;;;5.50;1.00;;;;;;5127991;28;20184;-81
2024/01/01 05:00:20;;;;;;;0.77;0.77;;;5.50;1.00;;;;;;5126953;28;20172;-81
2024/01/01 05:02:46;;;;;;;0.80;0.80;;;5.40;1.00;;;;;;5130664;28;20196;-84
2024/01/01 05:05:12;;;;;;;0.80;0.80;;;5.30;1.00;;;;;;5128046;28;20200;-85
2024/01/01 05:07:38;;;;;;;0.80;0.80;;;5.30;1.00;;;;;;5127354;28;20647;-82
2024/01/01 05:10:04;;;;;;;0.80;0.80;;;5.30;1.00;;;;;;5127701;28;20177;-83
2024/01/01 05:12:30;;;;;;;0.80;0.80;;;5.30;1.00;;;;;;5128286;28;20216;-83
2024/01/01 05:14:55;;;;;;;0.80;0.80;;;5.30;1.00;;;;;;5127091;28;20172;-84
2024/01/01 05:17:22;;;;;;;0.77;0.77;;;5.30;1.00;;;;;;5129394;28;20201;-85
2024/01/01 05:19:50;;;;;;;0.70;0.70;;;5.30;1.00;;;;;;5126201;28;20245;-84
2024/01/01 05:22:15;;;;;;;0.70;0.70;;;5.30;1.00;;;;;;5126569;28;20244;-85
2024/01/01 05:24:41;;;;;;;0.80;0.80;;;5.30;1.00;;;;;;5126616;28;20208;-82
2024/01/01 05:27:07;;;;;;;0.70;0.70;;;5.30;1.00;;;;;;5126471;28;20201;-84
2024/01/01 05:29:34;;;;;;;0.80;0.80;;;5.40;1.00;;;;;;5127022;28;20188;-84
2024/01/01 05:31:59;;;;;;;0.80;0.80;;;5.40;1.00;;;;;;5125916;28;20183;-84
2024/01/01 05:34:25;;;;;;;0.70;0.70;;;5.40;1.00;;;;;;5126681;28;20208;-84
2024/01/01 05:36:50;;;;;;;0.60;0.60;;;5.30;1.00;;;;;;5126356;28;20271;-83
2024/01/01 05:39:16;;;;;;;0.80;0.80;;;5.30;1.00;;;;;;5125008;28;20176;-85
2024/01/01 05:41:41;;;;;;;0.63;0.63;;;5.30;1.00;;;;;;5122516;28;20222;-83
2024/01/01 05:44:07;;;;;;;0.80;0.80;;;5.30;1.00;;;;;;5132075;28;20192;-80
2024/01/01 05:46:32;;;;;;;0.70;0.70;;;5.30;1.00;;;;;;5133600;28;20300;-83
2024/01/01 05:48:58;;;;;;;0.70;0.70;;;5.20;1.00;;;;;;5126569;28;20658;-84
2024/01/01 05:51:24;;;;;;;0.70;0.70;;;5.20;99.90;;;;;;5125342;28;20174;-83
2024/01/01 05:53:50;;;;;;;0.70;0.70;;;5.20;1.00;;;;;;5124229;28;20238;-84
2024/01/01 05:56:15;;;;;;;0.83;0.83;;;5.20;1.00;;;;;;5123499;28;20189;-86
2024/01/01 05:58:41;;;;;;;0.80;0.80;;;5.10;1.00;;;;;;5126713;28;20173;-83
2024/01/01 06:01:07;;;;;;;0.73;0.73;;;5.10;1.00;;;;;;5128269;28;20177;-83
2024/01/01 06:03:33;;;;;;;0.70;0.70;;;5.10;1.00;;;;;;5121963;28;20176;-83
2024/01/01 06:05:58;;;;;;;0.80;0.80;;;5.10;1.00;;;;;;5120325;28;20208;-83
2024/01/01 06:08:25;;;;;;;0.77;0.77;;;5.10;1.00;;;;;;5107214;28;20185;-82
2024/01/01 06:10:51;;;;;;;0.70;0.70;;;5.10;99.90;;;;;;5097185;28;20173;-82
2024/01/01 06:13:17;;;;;;;0.90;0.90;;;5.20;99.90;;;;;;5097218;28;20262;-82
2024/01/01 06:15:42;;;;;;;0.70;0.70;;;5.20;99.90;;;;;;5096093;28;20250;-82
2024/01/01 06:18:09;;;;;;;0.60;0.60;;;5.10;99.90;;;;;;5096242;28;20575;-83
2024/01/01 06:20:35;;;;;;;0.70;0.70;;;5.10;99.90;;;;;;5095964;28;20178;-82
2024/01/01 06:23:00;;;;;;;0.70;0.70;;;5.10;99.90;;;;;;5095997;28;20185;-83
2024/01/01 06:25:26;;;;;;;0.70;0.70;;;5.10;99.90;;;;;;5096401;28;20265;-81
2024/01/01 06:27:51;;;;;;;0.80;0.80;;;5.10;99.90;;;;;;5095646;28;20170;-84
2024/01/01 06:30:17;;;;;;;0.80;0.80;;;5.10;99.90;;;;;;5096473;28;20177;-82
2024/01/01 06:32:43;;;;;;;0.80;0.80;;;5.10;99.90;;;;;;5098027;28;20679;-80
2024/01/01 06:35:08;;;;;;;0.77;0.77;;;5.10;99.90;;;;;;5120459;28;20166;-78
2024/01/01 06:37:34;;;;;;;0.80;0.80;;;5.10;99.90;;;;;;5110225;28;20710;-82
2024/01/01 06:39:59;;;;;;;0.80;0.80;;;5.10;99.90;;;;;;5105516;28;20278;-82
2024/01/01 06:42:25;;;;;;;0.70;0.70;;;5.10;99.90;;;;;;5105730;28;20178;-82
2024/01/01 06:44:51;;;;;;;0.70;0.70;;;5.10;99.90;;;;;;5105025;28;20178;-82
2024/01/01 06:47:16;;;;;;;0.70;0.70;;;5.10;30.50;;;;;;5105382;28;20190;-82
2024/01/01 06:49:42;;;;;;;0.80;0.80;;;5.10;96.30;;;;;;5105026;28;20232;-83
2024/01/01 06:52:08;;;;;;;0.70;0.70;;;5.10;99.90;;;;;;5105391;28;20177;-82
2024/01/01 06:54:33;;;;;;;0.80;0.80;;;5.00;99.90;;;;;;5104587;28;20201;-83
2024/01/01 06:56:59;;;;;;;0.77;0.77;;;5.00;99.90;;;;;;5103638;28;20201;-81
2024/01/01 06:59:28;;;;;;;0.70;0.70;;;5.00;99.90;;;;;;5102772;28;20173;-83
2024/01/01 07:01:54;;;;;;;0.77;0.77;;;5.00;99.90;;;;;;5103055;28;20546;-83
2024/01/01 07:04:19;;;;;;;0.60;0.60;;;5.10;99.90;;;;;;5102298;28;20185;-81
2024/01/01 07:06:45;;;;;;;0.80;0.80;;;5.20;99.90;;;;;;5101900;28;20221;-82
2024/01/01 07:09:10;;;;;;;0.80;0.80;;;5.20;99.90;;;;;;5104114;28;20184;-83
2024/01/01 07:11:36;;;;;;;0.70;0.70;;;5.20;40.90;;;;;;5121877;28;20180;-81
2024/01/01 07:14:03;;;;;;;0.80;0.80;;;5.20;1.00;;;;;;5123995;28;20251;-83
2024/01/01 07:16:28;;;;;;;0.70;0.70;;;5.20;1.00;;;;;;5121712;28;20197;-82
2024/01/01 07:18:54;;;;;;;0.63;0.63;;;5.20;1.00;;;;;;5124022;28;20200;-82
2024/01/01 07:21:20;;;;;;;0.90;0.90;;;5.20;1.00;;;;;;5123230;28;20181;-83
2024/01/01 07:23:46;;;;;;;0.80;0.80;;;5.20;1.00;;;;;;5122130;28;20176;-83
2024/01/01 07:26:11;;;;;;;0.80;0.80;;;5.20;1.00;;;;;;5121477;28;20185;-82
2024/01/01 07:28:37;;;;;;;0.80;0.80;;;5.20;1.00;;;;;;5122351;28;20175;-83
2024/01/01 07:31:03;;;;;;;0.93;0.93;;;5.30;99.90;;;;;;5122463;28;20798;-83
2024/01/01 07:33:28;;;;;;;0.70;0.70;;;5.30;99.90;;;;;;5122811;28;20671;-82
2024/01/01 07:35:54;;;;;;;0.70;0.70;;;5.30;99.90;;;;;;5122178;28;20196;-82
2024/01/01 07:38:21;;;;;;;0.70;0.70;;;5.40;1.00;;;;;;5122819;28;20173;-81
2024/01/01 07:40:46;;;;;;;0.80;0.80;;;5.50;1.00;;;;;;5123307;28;20586;-82
2024/01/01 07:43:12;;;;;;;0.70;0.70;;;5.50;99.90;;;;;;5122699;28;20173;-83
2024/01/01 07:45:37;;;;;;;0.80;0.80;;;5.50;1.00;;;;;;5135462;28;20157;-81
2024/01/01 07:48:05;;;;;;;0.77;0.77;;;5.60;1.00;;;;;;5129559;28;20673;-81
2024/01/01 07:50:30;;;;;;;0.70;0.70;;;5.60;1.00;;;;;;5129926;28;20265;-83
2024/01/01 07:52:56;;;;;;;0.70;0.70;;;5.70;99.90;;;;;;5129120;28;20686;-83
2024/01/01 07:55:22;;;;;;;0.77;0.77;;;5.90;99.90;;;;;;5129630;28;20181;-82
2024/01/01 07:57:47;;;;;;;0.70;0.70;;;6.50;99.90;;;;;;5129264;28;20360;-83
2024/01/01 08:00:13;;;;;;;0.70;0.70;;;7.30;99.90;;;;;;5128643;28;20185;-83
2024/01/01 08:02:42;;;;;;;0.80;0.80;;;7.70;1.00;;;;;;5128949;28;20180;-83
2024/01/01 08:05:08;;;;;;;0.60;0.60;;;8.20;99.90;;;;;;5129370;28;20192;-82
2024/01/01 08:07:33;;;;;;;0.60;0.60;;;8.70;99.90;;;;;;5136155;28;20232;-81
2024/01/01 08:09:59;;;;;;;0.60;0.60;;;9.30;92.10;;;;;;5139004;28;20165;-82
2024/01/01 08:12:24;;;;;;;0.67;0.67;;;10.00;1.00;;;;;;5137739;28;20161;-81
2024/01/01 08:14:51;;;;;;;0.67;0.67;;;10.10;1.00;;;;;;5138916;28;20204;-80
2024/01/01 08:17:16;;;;;;;0.70;0.70;;;9.90;1.00;;;;;;5138410;28;20177;-80
2024/01/01 08:19:42;;;;;;;0.70;0.70;;;9.20;1.00;;;;;;5130347;28;20188;-81
2024/01/01 08:22:08;;;;;;;0.60;0.60;;;8.90;1.00;;;;;;5129151;28;20249;-84
2024/01/01 08:24:33;;;;;;;0.60;0.60;;;8.40;1.00;;;;;;5128940;28;20233;-83
2024/01/01 08:26:59;;;;;;;0.70;0.70;;;7.90;95.00;;;;;;5127541;28;20193;-83
2024/01/01 08:29:24;;;;;;;0.60;0.60;;;7.50;99.90;;;;;;5128387;28;20173;-83
2024/01/01 08:31:50;;;;;;;0.70;0.70;;;7.80;1.00;;;;;;5126785;28;20173;-82
2024/01/01 08:34:17;;;;;;;0.60;0.60;;;8.20;99.90;;;;;;5126736;28;20212;-84
2024/01/01 08:36:43;;;;;;;0.70;0.70;;;8.70;99.90;;;;;;5122728;28;20189;-83
2024/01/01 08:39:09;;;;;;;0.60;0.60;;;9.10;82.80;;;;;;5127818;28;20195;-83
2024/01/01 08:41:43;;;;;;;0.57;0.57;;;9.90;17.50;;;;;;5126141;28;20659;-83
2024/01/01 08:44:09;;;;;;;0.60;0.60;;;10.10;1.00;;;;;;5127174;28;20180;-83
2024/01/01 08:46:35;;;;;;;0.50;0.50;;;10.60;1.00;;;;;;5127452;28;20185;-84
2024/01/01 08:49:01;;;;;;;0.40;0.40;;;11.10;1.00;;;;;;5128629;28;20184;-84
2024/01/01 08:51:27;;;;;;;0.60;0.60;;;11.70;1.00;;;;;;5126903;28;20169;-86
2024/01/01 08:53:52;;;;;;;0.50;0.50;;;11.80;1.00;;;;;;5137766;28;20197;-85
2024/01/01 08:56:18;;;;;;;0.50;0.50;;;12.10;1.00;;;;;;5137652;28;20218;-82
2024/01/01 08:58:43;;;;;;;0.40;0.40;;;12.40;1.00;;;;;;5120963;28;20270;-80
2024/01/01 09:01:09;;;;;;;0.50;0.50;;;12.40;1.00;;;;;;5125736;28;20193;-82
2024/01/01 09:03:37;;;;;;;0.50;0.50;;;12.40;1.00;;;;;;5128463;28;20188;-83
2024/01/01 09:06:02;;;;;;;0.50;0.50;;;12.30;1.00;;;;;;5115777;28;20255;-83
2024/01/01 09:08:29;;;;;;;0.40;0.40;;;12.50;1.00;;;;;;5121605;28;20822;-83
2024/01/01 09:10:54;;;;;;;0.40;0.40;;;12.80;1.00;;;;;;5113352;28;20185;-83
2024/01/01 09:13:20;;;;;;;0.50;0.50;;;12.60;1.00;;;;;;5120587;28;21439;-80
2024/01/01 09:15:45;;;;;;;0.40;0.40;;;12.40;1.00;;;;;;5120838;28;20194;-80
2024/01/01 09:18:11;;;;;;;0.43;0.43;;;13.20;1.00;;;;;;5120729;28;20177;-79
2024/01/01 09:20:38;;;;;;;0.50;0.50;;;13.70;1.00;;;;;;5129388;28;20176;-82
2024/01/01 09:23:04;;;;;;;0.50;0.50;;;13.80;1.00;;;;;;5121217;28;20174;-81
2024/01/01 09:25:30;;;;;;;0.40;0.40;;;13.40;1.00;;;;;;5111413;28;20189;-84
2024/01/01 09:27:56;;;;;;;0.47;0.47;;;13.30;1.00;;;;;;5104626;28;20170;-83
2024/01/01 09:30:21;;;;;;;0.53;0.53;;;13.50;1.00;;;;;;5119302;28;20233;-84
2024/01/01 09:32:47;;;;;;;0.50;0.50;;;13.20;1.00;;;;;;5122302;28;20203;-82
2024/01/01 09:35:13;;;;;;;0.50;0.50;;;12.80;1.00;;;;;;5128059;28;20649;-82
2024/01/01 09:37:39;;;;;;;0.50;0.50;;;12.70;1.00;;;;;;5126238;28;20199;-83
2024/01/01 09:40:08;;;;;;;0.53;0.53;;;12.00;1.00;;;;;;5127544;28;20205;-83
2024/01/01 09:42:34;;;;;;;0.50;0.50;;;11.60;1.00;;;;;;5127602;28;20237;-83
2024/01/01 09:45:01;;;;;;;0.53;0.53;;;11.50;1.00;;;;;;5127298;28;20173;-83
2024/01/01 09:47:26;;;;;;;0.47;0.47;;;11.40;1.00;;;;;;5126785;28;20185;-85
2024/01/01 09:49:52;;;;;;;0.50;0.50;;;11.50;1.00;;;;;;5122539;28;20169;-83
2024/01/01 09:52:18;;;;;;;0.40;0.40;;;11.30;1.00;;;;;;5119251;28;20260;-83
2024/01/01 09:54:44;;;;;;;0.47;0.47;;;11.30;1.00;;;;;;5114092;28;20192;-84
2024/01/01 09:57:09;;;;;;;0.50;0.50;;;11.00;1.00;;;;;;5113757;28;20188;-85
2024/01/01 09:59:39;;;;;;;0.50;0.50;;;11.40;1.00;;;;;;5113376;28;20205;-85
2024/01/01 10:02:07;;;;;;;0.57;0.57;;;11.30;1.00;;;;;;5112980;28;20162;-84
2024/01/01 10:04:34;;;;;;;0.43;0.43;;;11.60;1.00;;;;;;5119324;28;20181;-84
2024/01/01 10:07:00;;;;;;;0.50;0.50;;;12.00;1.00;;;;;;5114840;28;20209;-83
2024/01/01 10:09:25;;;;;;;0.60;0.60;;;12.20;1.00;;;;;;5119166;28;20269;-82
2024/01/01 10:11:51;;;;;;;0.60;0.60;;;11.80;1.00;;;;;;5117862;28;20169;-83
2024/01/01 10:14:17;;;;;;;0.50;0.50;;;11.50;1.00;;;;;;5117165;28;20568;-82
2024/01/01 10:16:43;;;;;;;0.50;0.50;;;10.90;1.00;;;;;;5114822;28;20269;-83
2024/01/01 10:19:09;;;;;;;0.60;0.60;;;10.70;1.00;;;;;;5115219;28;20514;-83
2024/01/01 10:21:37;;;;;;;0.50;0.50;;;10.10;1.00;;;;;;5115484;28;20177;-82
2024/01/01 10:24:21;;;;;;;0.60;0.60;;;9.40;1.00;;;;;;5115172;28;20177;-82
2024/01/01 10:26:48;;;;;;;0.60;0.60;;;9.10;1.00;;;;;;5111691;28;20194;-81
2024/01/01 10:29:15;;;;;;;0.90;0.90;;;9.00;1.00;;;;;;5112014;28;20177;-82
2024/01/01 10:31:48;;;;;;;0.60;0.60;;;9.10;1.00;;;;;;5112278;28;20545;-83
2024/01/01 10:34:14;;;;;;;0.60;0.60;;;9.60;1.00;;;;;;5114344;28;20211;-79
2024/01/01 10:36:44;;;;;;;0.40;0.40;;;10.00;1.00;;;;;;5122688;28;20201;-82
2024/01/01 10:39:10;;;;;;;0.50;0.50;;;10.30;1.00;;;;;;5117239;28;20192;-85
2024/01/01 10:41:37;;;;;;;0.50;0.50;;;10.40;1.00;;;;;;5125843;28;20245;-82
2024/01/01 10:44:08;;;;;;;0.50;0.50;;;10.30;1.00;;;;;;5125433;28;20496;-83
2024/01/01 10:46:36;;;;;;;0.50;0.50;;;10.40;1.00;;;;;;5120663;27;20702;-82
2024/01/01 10:49:02;;;;;;;0.60;0.60;;;10.90;1.00;;;;;;5123817;28;20199;-85
2024/01/01 10:51:57;;;;;;;0.60;0.60;;;11.30;1.00;;;;;;5125179;28;20176;-83
2024/01/01 10:55:11;;;;;;;0.53;0.53;;;11.50;1.00;;;;;;5124734;27;20733;-85
2024/01/01 10:58:06;;;;;;;0.50;0.50;;;11.20;1.00;;;;;;5086493;28;20684;-83
2024/01/01 11:00:34;;;;;;;0.50;0.50;;;11.00;1.00;;;;;;5126129;28;20177;-85
2024/01/01 11:03:01;;;;;;;0.70;0.70;;;10.90;1.00;;;;;;5121591;28;20177;-85
2024/01/01 11:05:34;;;;;;;0.50;0.50;;;10.80;1.00;;;;;;5105937;28;20181;-84
2024/01/01 11:08:03;;;;;;;0.60;0.60;;;10.80;1.00;;;;;;5124145;28;20169;-80
2024/01/01 11:10:45;;;;;;;0.43;0.43;;;10.80;1.00;;;;;;5116172;28;20158;-81
2024/01/01 11:13:13;;;;;;;0.53;0.53;;;10.80;1.00;;;;;;5124515;28;20232;-79
2024/01/01 11:15:44;;;;;;;0.60;0.60;;;10.80;1.00;;;;;;5125831;28;20244;-80
2024/01/01 11:18:13;;;;;;;0.70;0.70;;;10.80;1.00;;;;;;5121374;27;20208;-83
2024/01/01 11:20:53;;;;;;;0.50;0.50;;;10.80;1.00;;;;;;5123583;28;20216;-84
2024/01/01 11:23:46;;;;;;;0.60;0.60;;;10.50;1.00;;;;;;5104916;28;20180;-86
2024/01/01 11:26:34;;;;;;;0.60;0.60;;;10.50;1.00;;;;;;5104747;28;20198;-84
2024/01/01 11:29:04;;;;;;;0.70;0.70;;;10.40;1.00;;;;;;5123494;27;20173;-82
2024/01/01 11:31:31;;;;;;;0.60;0.60;;;10.50;1.00;;;;;;5135848;27;20189;-84
2024/01/01 11:34:08;;;;;;;0.67;0.67;;;10.50;1.00;;;;;;5101696;27;20229;-81
2024/01/01 11:36:34;;;;;;;0.60;0.60;;;10.40;1.00;;;;;;5101759;28;20201;-83
2024/01/01 11:39:01;;;;;;;0.60;0.60;;;10.60;1.00;;;;;;5102868;28;20177;-84
2024/01/01 11:41:31;;;;;;;0.50;0.50;;;10.60;1.00;;;;;;5120124;28;20596;-83
2024/01/01 11:44:15;;;;;;;0.50;0.50;;;10.50;1.00;;;;;;5109469;28;20557;-80
2024/01/01 11:46:42;;;;;;;0.63;0.63;;;10.20;1.00;;;;;;5121800;28;20261;-82
2024/01/01 11:49:08;;;;;;;0.60;0.60;;;10.20;1.00;;;;;;5124459;28;20232;-84
2024/01/01 11:51:53;;;;;;;0.60;0.60;;;10.50;1.00;;;;;;5114874;28;20189;-84
2024/01/01 11:54:19;;;;;;;0.70;0.70;;;10.70;1.00;;;;;;5121136;28;20200;-82
2024/01/01 11:56:46;;;;;;;0.60;0.60;;;11.00;1.00;;;;;;5118387;28;20667;-83
2024/01/01 11:59:13;;;;;;;0.53;0.53;;;11.30;1.00;;;;;;5113352;28;20180;-84
2024/01/01 12:01:40;;;;;;;0.50;0.50;;;11.10;1.00;;;;;;5124057;28;20284;-85
2024/01/01 12:04:09;;;;;;;0.60;0.60;;;11.30;1.00;;;;;;5123981;27;20173;-83
2024/01/01 12:06:35;;;;;;;0.60;0.60;;;11.50;1.00;;;;;;5122750;28;20674;-85
2024/01/01 12:09:06;;;;;;;0.60;0.60;;;11.60;1.00;;;;;;5111511;28;20848;-85
2024/01/01 12:11:32;;;;;;;0.57;0.57;;;11.60;1.00;;;;;;5124349;28;20181;-83
2024/01/01 12:13:58;;;;;;;0.50;0.50;;;11.90;1.00;;;;;;5124030;28;20569;-85
2024/01/01 12:16:24;;;;;;;0.50;0.50;;;11.90;1.00;;;;;;5121910;28;20197;-83
2024/01/01 12:19:00;;;;;;;0.50;0.50;;;11.50;1.00;;;;;;5122473;28;20169;-83
2024/01/01 12:21:46;;;;;;;0.60;0.60;;;10.90;1.00;;;;;;5136539;28;20185;-82
2024/01/01 12:24:21;;;;;;;0.60;0.60;;;10.70;1.00;;;;;;5137541;27;20185;-79
2024/01/01 12:26:50;;;;;;;0.60;0.60;;;10.60;1.00;;;;;;5137484;28;20189;-79
2024/01/01 12:29:18;;;;;;;0.60;0.60;;;10.20;1.00;;;;;;5138161;28;20207;-80
2024/01/01 12:31:45;;;;;;;0.60;0.60;;;9.90;1.00;;;;;;5137967;28;20169;-79
2024/01/01 12:34:16;;;;;;;0.70;0.70;;;9.60;1.00;;;;;;5137457;28;20213;-82
2024/01/01 12:36:44;;;;;;;0.60;0.60;;;9.50;1.00;;;;;;5125770;27;20205;-87
2024/01/01 12:39:10;;;;;;;0.70;0.70;;;9.50;1.00;;;;;;5107999;28;20173;-86
2024/01/01 12:41:37;;;;;;;0.70;0.70;;;9.50;1.00;;;;;;5103545;28;20230;-83
2024/01/01 12:44:02;;;;;;;0.70;0.70;;;9.70;1.00;;;;;;5113022;28;20659;-84
2024/01/01 12:46:28;;;;;;;0.60;0.60;;;9.80;1.00;;;;;;5103772;28;20245;-84
2024/01/01 12:48:54;;;;;;;0.77;0.77;;;9.70;1.00;;;;;;5105496;28;20253;-84
2024/01/01 12:51:22;;;;;;;0.70;0.70;;;9.80;1.00;;;;;;5105674;28;20178;-82
2024/01/01 12:53:49;;;;;;;0.60;0.60;;;10.00;1.00;;;;;;5102797;28;20201;-83
2024/01/01 12:56:15;;;;;;;0.60;0.60;;;10.00;1.00;;;;;;5110182;28;20201;-80
2024/01/01 12:58:41;;;;;;;0.60;0.60;;;10.30;1.00;;;;;;5114180;28;20200;-81
2024/01/01 13:01:16;;;;;;;0.50;0.50;;;10.60;1.00;;;;;;5113310;28;20169;-83